Historyczne dane pomiarowe

Dodano dane terminowe – wersja testowa.

Dane z okresu 1951-2019

Wersja bazy: 1.34 [2019-03-16, lista zmian], aktualizacja planowana na 2019-04-15

Dane meteo z obszaru Polski uzyskane na podstawie danych udostępnionych przez Instytut Meteorologii i Gospodarki Wodnej – Państwowy Instytut Badawczy.

 

Wybierz Datę:    

       

TemperaturaWilgotnośćWiatrCiśnienieOpadyŚniegCzas trwania zjawisk
 Stacja t tx tn tng RH VA  wxwx mslp ppp RRR   cm mm wxwxwxwxwxwxwx
1994-10-10 5.5 9.0 2.5- 98.5- 8.0 12.3---- 7.1------------
1994-10-09 8.8 12.4 7.4- 96.5- 8.0 2.7---- 12.7------------
1994-10-08 8.9 12.7 6.5- 82.0- 8.0 2.0---- 17.4------------
1994-10-07 3.7 10.3 -3.0- 79.3- 6.0 1.3---- 0.0------------
1994-10-06 1.4 4.1 -1.6- 96.5- 8.0 2.0---- 0.0------------
1994-10-05 2.6 8.1 -0.6- 88.8- 8.0 2.0---- 0.0------------
1994-10-04 8.5 15.4 2.0- 81.3- 8.0 1.3---- 0.0------------
1994-10-03 10.8 17.4 2.4- 89.8- 8.0 3.3---- 3.4------------
1994-10-02 6.7 11.1 1.5- 80.3- 5.0 2.0---- 0.0------------
1994-10-01 11.8 14.6 7.4- 84.3- 7.0 3.0---- 1.5------------
1994-09-30 11.7 15.0 7.4- 75.0- 5.0 2.3---- 0.0------------
1994-09-29 11.3 16.0 6.4- 75.5- 5.0 2.0---- 0.0------------
1994-09-28 11.2 13.9 9.3- 70.8- 6.0 4.7---- 0.0------------
1994-09-27 13.3 15.5 11.0- 93.0- 8.0 2.3---- 0.0------------
1994-09-26 15.5 19.0 12.5- 92.5- 8.0 2.0---- 0.0------------
1994-09-25 13.9 20.2 6.4- 85.3- 5.0 2.0---- 0.0------------
1994-09-24 12.5 18.9 5.4- 89.0- 5.0 2.0---- 0.0------------
1994-09-23 13.9 16.6 12.1- 92.0- 8.0 3.0---- 0.1------------
1994-09-22 12.5 14.4 11.5- 98.8- 8.0 2.3---- 2.4------------
1994-09-21 14.8 21.3 9.1- 94.3- 7.0 3.0---- 0.4------------
1994-09-20 10.6 13.0 7.4- 98.0- 8.0 2.0---- 6.8------------
1994-09-19 11.5 16.9 6.5- 84.5- 6.0 2.3---- 0.0------------
1994-09-18 11.4 14.6 9.4- 92.3- 6.0 3.0---- 0.0------------
1994-09-17 12.4 17.9 7.5- 82.5- 7.3 5.3---- 6.1------------
1994-09-16 15.9 19.8 12.5- 82.5- 8.0 4.0---- 0.3------------
1994-09-15 20.5 26.4 16.0- 78.3- 7.0 3.0---- 0.0------------
1994-09-14 17.4 20.9 14.0- 94.3- 8.0 1.0---- 16.7------------
1994-09-13 17.7 20.0 11.5- 90.5- 8.0 2.0---- 0.0------------
1994-09-12 14.5 19.9 7.4- 78.8- 6.0 2.3---- 0.0------------
1994-09-11 13.7 16.5 11.2- 84.8- 6.0 2.0---- 0.3------------
1994-09-10 15.0 19.5 9.9- 79.8- 5.0 2.0---- 0.0------------
1994-09-09 18.7 26.5 7.9- 79.3- 4.0 2.0---- 2.3------------
1994-09-08 13.5 18.0 8.1- 88.5- 8.0 2.0---- 0.0------------
1994-09-07 11.7 14.5 9.9- 99.8- 8.0 2.3---- 8.1------------
1994-09-06 15.1 18.4 8.4- 91.3- 8.0 2.7---- 1.0------------
1994-09-05 16.7 21.5 10.4- 83.0- 4.0 2.0---- 3.4------------
1994-09-04 16.1 20.6 13.5- 94.0- 8.0 2.0---- 1.5------------
1994-09-03 18.8 24.9 14.5- 89.5- 7.0 3.0---- 16.1------------
1994-09-02 15.3 17.4 8.6- 94.3- 8.0 2.7---- 0.0------------
1994-09-01 14.9 24.0 5.4- 76.0- 4.3 2.3---- 0.0------------
1994-08-31 13.5 20.9 6.9- 78.8- 8.0 1.3---- 0.0------------
1994-08-30 14.1 19.6 9.4- 76.0- 7.3 4.7---- 0.0------------
1994-08-29 14.6 19.9 9.4- 79.8- 5.3 2.7---- 0.0------------
1994-08-28 17.6 21.5 13.0- 73.3- 8.0 4.7---- 0.0------------
1994-08-27 15.9 23.4 7.5- 74.0- 3.0 0.7---- 0.0------------
1994-08-26 14.9 22.1 9.0- 71.3- 3.0 1.3---- 0.0------------
1994-08-25 15.2 20.3 10.4- 77.5- 7.0 2.0---- 0.0------------
1994-08-24 15.7 20.3 11.5- 87.8- 7.3 1.0---- 1.3------------
1994-08-23 14.9 20.9 9.4- 87.3- 7.0 2.0---- 0.0------------
1994-08-22 15.4 19.5 9.4- 79.8- 5.3 1.7---- 0.0------------
1994-08-21 15.2 18.6 11.0- 91.3- 8.0 2.7---- 1.5------------
1994-08-20 13.0 17.4 10.4- 94.0- 8.0 1.7---- 6.1------------
1994-08-19 13.1 15.4 11.0- 91.3- 8.0 3.0---- 1.7------------
1994-08-18 16.3 21.9 10.4- 83.0- 7.3 2.0---- 8.0------------
1994-08-17 16.4 21.5 9.6- 69.5- 6.0 1.0---- 0.0------------
1994-08-16 17.4 22.9 13.0- 81.3- 7.3 2.3---- 3.4------------
1994-08-15 11.8 16.4 7.6- 90.0- 8.0 4.0---- 0.0------------
1994-08-14 14.7 17.4 11.7- 78.8- 7.0 3.0---- 2.4------------
1994-08-13 17.3 22.6 14.5- 87.8- 6.7 2.0---- 3.7------------
1994-08-12 17.5 24.0 11.0- 78.5- 6.0 1.3---- 0.0------------
584.1 ms

 

Źródłem pochodzenia danych jest Instytut Meteorologii i Gospodarki Wodnej – Państwowy Instytut Badawczy. Dane Instytutu Meteorologii i Gospodarki Wodnej – Państwowego Instytutu Badawczego zostały przetworzone.

Dane źródłowe można odnaleźć na stronie https://dane.imgw.pl